Time;durP1;ratioP1;P1;durP2;ratioP2;P2;SDS_P1;SDS_P2;PMS_P1;PMS_P2;Temp;Humidity;BMP_temperature;BMP_pressure;BME280_temperature;BME280_humidity;BME280_pressure;Samples;Min_cycle;Max_cycle;Signal;HPM_P1;HPM_P2
2020/12/12 00:02:18;;;;;;;57.40;26.35;;;179.40;2073.60;;;;;;5055991;28;20032;-67
2020/12/12 00:04:43;;;;;;;52.38;24.40;;;179.40;2073.60;;;;;;5055349;28;20033;-66
2020/12/12 00:07:10;;;;;;;50.67;24.98;;;179.40;2073.60;;;;;;5055547;28;20048;-66
2020/12/12 00:09:36;;;;;;;50.97;23.92;;;179.40;2073.60;;;;;;5055643;28;20021;-66
2020/12/12 00:12:04;;;;;;;47.35;22.65;;;179.40;2073.60;;;;;;5055001;28;20028;-66
2020/12/12 00:14:30;;;;;;;55.17;24.77;;;179.40;2048.00;;;;;;5055608;28;20386;-65
2020/12/12 00:16:55;;;;;;;47.65;22.80;;;179.40;2073.60;;;;;;5055648;28;20492;-65
2020/12/12 00:19:21;;;;;;;45.22;22.80;;;179.40;2073.60;;;;;;5054359;28;20024;-66
2020/12/12 00:21:53;;;;;;;47.00;22.38;;;179.40;2073.60;;;;;;5055257;28;20021;-66
2020/12/12 00:24:19;;;;;;;54.08;24.77;;;179.40;2073.60;;;;;;5054943;28;20108;-64
2020/12/12 00:26:45;;;;;;;50.83;23.48;;;179.50;2048.00;;;;;;5056604;28;20032;-67
2020/12/12 00:29:15;;;;;;;50.38;24.88;;;179.40;2073.60;;;;;;5069210;28;20028;-66
2020/12/12 00:31:41;;;;;;;57.33;23.65;;;179.50;2073.60;;;;;;5059618;28;20025;-66
2020/12/12 00:34:08;;;;;;;52.28;24.65;;;179.40;2073.60;;;;;;5060615;28;20690;-66
2020/12/12 00:36:42;;;;;;;50.42;24.08;;;179.50;2048.00;;;;;;5069511;28;20032;-66
2020/12/12 00:39:08;;;;;;;;;;;179.50;2048.00;;;;;;5058260;28;20725;-66
2020/12/12 00:41:38;;;;;;;46.08;21.02;;;179.40;2048.00;;;;;;5074329;28;19978;-66
2020/12/12 00:44:07;;;;;;;45.65;21.50;;;179.50;2048.00;;;;;;5075283;28;20130;-66
2020/12/12 00:46:34;;;;;;;43.53;21.17;;;179.40;2048.00;;;;;;5074724;28;20025;-67
2020/12/12 00:49:00;;;;;;;40.42;20.20;;;179.40;2048.00;;;;;;5074957;28;20025;-66
2020/12/12 00:51:26;;;;;;;44.47;21.58;;;179.40;2073.60;;;;;;5060436;28;20103;-66
2020/12/12 00:53:51;;;;;;;40.78;20.40;;;179.40;2073.60;;;;;;5053905;28;20536;-65
2020/12/12 00:56:18;;;;;;;45.50;21.55;;;179.40;2073.60;;;;;;5071317;28;20040;-66
2020/12/12 00:58:43;;;;;;;42.25;20.98;;;179.50;2048.00;;;;;;5075097;28;20086;-66
2020/12/12 01:01:10;;;;;;;45.15;19.85;;;179.50;2048.00;;;;;;5072530;28;20025;-67
2020/12/12 01:03:37;;;;;;;36.97;19.45;;;179.50;2048.00;;;;;;5054749;28;20090;-66
2020/12/12 01:06:04;;;;;;;40.78;19.08;;;179.50;2048.00;;;;;;5054789;28;20024;-66
2020/12/12 01:08:30;;;;;;;40.75;19.08;;;179.50;2048.00;;;;;;5053761;28;20429;-66
2020/12/12 01:10:56;;;;;;;43.92;20.35;;;179.60;2048.00;;;;;;5054441;28;20052;-64
2020/12/12 01:13:22;;;;;;;45.75;21.83;;;179.60;2048.00;;;;;;5054743;28;20041;-67
2020/12/12 01:15:48;;;;;;;42.40;20.77;;;179.50;2048.00;;;;;;5065250;28;20046;-66
2020/12/12 01:18:14;;;;;;;46.45;21.92;;;179.50;2048.00;;;;;;5074669;28;20036;-66
2020/12/12 01:20:40;;;;;;;42.25;20.48;;;179.50;2048.00;;;;;;5074717;28;20531;-66
2020/12/12 01:23:06;;;;;;;39.95;19.73;;;179.50;2048.00;;;;;;5073972;28;20043;-65
2020/12/12 01:25:32;;;;;;;35.42;18.42;;;179.50;2048.00;;;;;;5074100;28;20158;-67
2020/12/12 01:27:58;;;;;;;39.63;18.60;;;179.50;2048.00;;;;;;5073796;28;20099;-66
2020/12/12 01:30:23;;;;;;;37.72;19.17;;;179.50;2048.00;;;;;;5073640;28;20028;-66
2020/12/12 01:32:49;;;;;;;32.90;16.92;;;179.50;2048.00;;;;;;5074258;28;20576;-66
2020/12/12 01:35:15;;;;;;;34.72;17.35;;;179.50;2048.00;;;;;;5073721;28;20501;-67
2020/12/12 01:37:44;;;;;;;41.90;19.95;;;179.50;2048.00;;;;;;5073613;28;20111;-66
2020/12/12 01:40:11;;;;;;;34.88;17.95;;;179.50;2048.00;;;;;;5074200;28;20374;-67
2020/12/12 01:42:36;;;;;;;36.67;17.95;;;179.50;2048.00;;;;;;5073644;28;20029;-67
2020/12/12 01:45:05;;;;;;;43.58;19.55;;;179.60;2048.00;;;;;;5073708;28;20580;-68
2020/12/12 01:47:30;;;;;;;41.10;18.40;;;179.60;2022.40;;;;;;5073912;28;20033;-67
2020/12/12 01:49:56;;;;;;;34.78;17.55;;;179.60;2048.00;;;;;;5073508;28;20070;-67
2020/12/12 01:52:23;;;;;;;37.22;18.02;;;179.70;2022.40;;;;;;5073318;28;20044;-68
2020/12/12 01:54:49;;;;;;;37.25;17.77;;;179.70;2022.40;;;;;;5073832;28;20132;-67
2020/12/12 01:57:19;;;;;;;38.83;18.13;;;179.60;2048.00;;;;;;5073139;28;20112;-66
2020/12/12 01:59:46;;;;;;;38.03;17.52;;;179.70;2048.00;;;;;;5073369;28;20427;-67
2020/12/12 02:02:12;;;;;;;40.75;18.15;;;179.60;2048.00;;;;;;5073693;28;20041;-67
2020/12/12 02:04:40;;;;;;;47.13;20.02;;;179.60;2048.00;;;;;;5073247;28;20051;-68
2020/12/12 02:07:06;;;;;;;45.60;22.35;;;179.60;2048.00;;;;;;5057275;28;20031;-67
2020/12/12 02:09:33;;;;;;;54.55;22.35;;;179.60;2048.00;;;;;;5053603;28;20344;-66
2020/12/12 02:12:00;;;;;;;51.30;22.80;;;179.60;2048.00;;;;;;5052349;28;20029;-67
2020/12/12 02:14:26;;;;;;;45.78;22.20;;;179.60;2048.00;;;;;;5053333;28;20474;-66
2020/12/12 02:16:56;;;;;;;45.40;22.67;;;179.70;2048.00;;;;;;5053516;28;20067;-67
2020/12/12 02:19:21;;;;;;;43.50;20.60;;;179.70;2048.00;;;;;;5052351;28;20075;-65
2020/12/12 02:21:55;;;;;;;43.15;20.05;;;179.60;2048.00;;;;;;5053166;28;20021;-67
2020/12/12 02:24:21;;;;;;;42.38;18.80;;;179.60;2048.00;;;;;;5053311;28;20021;-67
2020/12/12 02:26:47;;;;;;;41.17;19.02;;;179.60;2048.00;;;;;;5051703;28;20021;-67
2020/12/12 02:29:13;;;;;;;39.78;18.98;;;179.60;2048.00;;;;;;5053194;28;20032;-67
2020/12/12 02:31:39;;;;;;;42.15;18.17;;;179.60;2048.00;;;;;;5052651;28;20025;-66
2020/12/12 02:34:05;;;;;;;38.83;17.15;;;179.60;2048.00;;;;;;5052539;28;20120;-67
2020/12/12 02:36:36;;;;;;;35.65;17.83;;;179.60;2048.00;;;;;;5053084;28;20078;-65
2020/12/12 02:39:02;;;;;;;36.28;16.20;;;179.60;2048.00;;;;;;5052665;28;20056;-67
2020/12/12 02:41:28;;;;;;;37.13;18.20;;;179.60;2048.00;;;;;;5052488;28;20104;-66
2020/12/12 02:43:54;;;;;;;34.80;16.00;;;179.60;2048.00;;;;;;5053421;28;20067;-67
2020/12/12 02:46:20;;;;;;;34.95;16.83;;;179.60;2048.00;;;;;;5052431;28;20099;-68
2020/12/12 02:48:48;;;;;;;32.13;15.35;;;179.60;2048.00;;;;;;5052712;28;20025;-67
2020/12/12 02:51:15;;;;;;;33.00;15.57;;;179.60;2048.00;;;;;;5053357;28;20095;-65
2020/12/12 02:53:44;;;;;;;34.95;16.50;;;179.60;2048.00;;;;;;5051632;28;20509;-67
2020/12/12 02:56:13;;;;;;;32.67;15.88;;;179.60;2048.00;;;;;;5052772;28;20044;-66
2020/12/12 02:58:39;;;;;;;31.25;15.68;;;179.60;2048.00;;;;;;5052852;28;20029;-66
2020/12/12 03:01:06;;;;;;;34.13;17.05;;;179.60;2048.00;;;;;;5051932;28;20051;-66
2020/12/12 03:03:31;;;;;;;40.80;17.70;;;179.60;2048.00;;;;;;5052882;28;20104;-65
2020/12/12 03:05:57;;;;;;;35.03;16.55;;;179.60;2073.60;;;;;;5052867;28;20163;-66
2020/12/12 03:08:23;;;;;;;38.75;18.02;;;179.60;2048.00;;;;;;5052061;28;20144;-64
2020/12/12 03:10:48;;;;;;;33.15;16.17;;;179.50;2073.60;;;;;;5034215;28;20044;-65
2020/12/12 03:13:14;;;;;;;34.97;15.93;;;179.60;2048.00;;;;;;5052377;28;20126;-64
2020/12/12 03:15:40;;;;;;;33.30;16.75;;;179.60;2048.00;;;;;;5052092;28;20083;-65
2020/12/12 03:18:05;;;;;;;34.03;15.63;;;179.60;2073.60;;;;;;5052856;28;20021;-67
2020/12/12 03:20:31;;;;;;;33.25;16.05;;;179.60;2073.60;;;;;;5034046;28;20054;-66
2020/12/12 03:22:57;;;;;;;32.70;15.75;;;179.60;2048.00;;;;;;5052301;28;20060;-66
2020/12/12 03:25:23;;;;;;;32.47;15.38;;;179.60;2048.00;;;;;;5052361;28;20067;-66
2020/12/12 03:27:49;;;;;;;28.65;15.32;;;179.60;2048.00;;;;;;5052103;28;20025;-65
2020/12/12 03:30:14;;;;;;;30.63;14.52;;;179.60;2048.00;;;;;;5052084;28;20121;-66
2020/12/12 03:32:40;;;;;;;34.08;15.98;;;179.60;2073.60;;;;;;5052637;28;20029;-66
2020/12/12 03:35:06;;;;;;;33.08;17.05;;;179.50;2073.60;;;;;;5051796;28;20063;-66
2020/12/12 03:37:31;;;;;;;35.55;17.10;;;179.50;2073.60;;;;;;5051934;28;20031;-65
2020/12/12 03:39:57;;;;;;;34.97;15.85;;;179.60;2073.60;;;;;;5056064;28;20037;-66
2020/12/12 03:42:23;;;;;;;31.45;14.95;;;179.60;2073.60;;;;;;5055910;28;20025;-65
2020/12/12 03:44:48;;;;;;;30.30;14.90;;;179.60;2073.60;;;;;;5055875;28;20462;-67
2020/12/12 03:47:14;;;;;;;33.67;14.73;;;179.60;2048.00;;;;;;5056140;28;20029;-67
2020/12/12 03:49:40;;;;;;;34.92;15.15;;;179.60;2073.60;;;;;;5055500;28;20025;-66
2020/12/12 03:52:06;;;;;;;30.60;14.80;;;179.60;2073.60;;;;;;5055753;28;20040;-67
2020/12/12 03:54:31;;;;;;;29.75;13.82;;;179.70;2048.00;;;;;;5055687;28;20098;-66
2020/12/12 03:56:57;;;;;;;31.42;14.48;;;179.70;2048.00;;;;;;5055486;28;20029;-67
2020/12/12 03:59:23;;;;;;;28.38;14.13;;;179.70;2073.60;;;;;;5055310;28;20031;-66
2020/12/12 04:01:48;;;;;;;30.25;14.50;;;179.70;2073.60;;;;;;5055899;28;20029;-67
2020/12/12 04:04:15;;;;;;;30.25;13.90;;;179.60;2073.60;;;;;;5055422;28;20063;-66
2020/12/12 04:06:41;;;;;;;30.83;14.27;;;179.60;2073.60;;;;;;5055031;28;20542;-65
2020/12/12 04:09:06;;;;;;;34.40;15.80;;;179.70;2073.60;;;;;;5055864;28;20382;-68
2020/12/12 04:11:32;;;;;;;33.83;14.48;;;179.70;2073.60;;;;;;5055384;28;20071;-67
2020/12/12 04:13:58;;;;;;;32.00;14.57;;;179.70;2073.60;;;;;;5055672;28;20478;-67
2020/12/12 04:16:24;;;;;;;26.10;13.32;;;179.70;2073.60;;;;;;5055660;28;20039;-67
2020/12/12 04:18:50;;;;;;;28.60;13.68;;;179.70;2073.60;;;;;;5054850;28;20129;-66
2020/12/12 04:21:16;;;;;;;29.67;13.38;;;179.70;2073.60;;;;;;5054990;28;20377;-66
2020/12/12 04:23:44;;;;;;;30.40;14.05;;;179.70;2073.60;;;;;;5055568;28;20033;-66
2020/12/12 04:26:13;;;;;;;33.10;14.80;;;179.70;2073.60;;;;;;5054796;28;20036;-66
2020/12/12 04:28:40;;;;;;;36.42;16.65;;;179.70;2073.60;;;;;;5037518;28;20085;-66
2020/12/12 04:31:06;;;;;;;38.40;16.73;;;179.70;2073.60;;;;;;5055009;28;20025;-66
2020/12/12 04:33:32;;;;;;;34.08;16.02;;;179.70;2073.60;;;;;;5053977;28;20033;-66
2020/12/12 04:35:58;;;;;;;34.10;15.70;;;179.70;2073.60;;;;;;5055340;28;20070;-66
2020/12/12 04:38:25;;;;;;;42.92;18.15;;;179.70;2073.60;;;;;;5055762;28;20037;-66
2020/12/12 04:40:52;;;;;;;42.38;19.92;;;179.70;2073.60;;;;;;5055686;28;20103;-67
2020/12/12 04:43:18;;;;;;;42.00;20.25;;;179.80;2073.60;;;;;;5055554;28;20017;-67
2020/12/12 04:45:46;;;;;;;42.80;18.50;;;179.80;2073.60;;;;;;5037855;28;20519;-66
2020/12/12 04:48:12;;;;;;;40.60;18.17;;;179.70;2073.60;;;;;;5055674;28;20025;-66
2020/12/12 04:50:38;;;;;;;41.25;18.55;;;179.80;2073.60;;;;;;5054724;28;20494;-67
2020/12/12 04:53:18;;;;;;;35.75;18.30;;;179.80;2073.60;;;;;;5055335;28;20112;-68
2020/12/12 04:55:47;;;;;;;40.00;17.98;;;179.80;2073.60;;;;;;5055190;28;20052;-67
2020/12/12 04:58:15;;;;;;;43.65;18.75;;;179.80;2073.60;;;;;;5055327;28;20075;-67
2020/12/12 05:00:47;;;;;;;45.78;18.20;;;179.80;2073.60;;;;;;5055148;28;20021;-66
2020/12/12 05:03:15;;;;;;;45.92;19.20;;;179.80;2073.60;;;;;;5055438;28;20078;-67
2020/12/12 05:05:41;;;;;;;43.45;19.65;;;179.80;2073.60;;;;;;5061955;28;20017;-67
2020/12/12 05:08:08;;;;;;;42.90;18.30;;;179.80;2073.60;;;;;;5068049;28;20032;-68
2020/12/12 05:10:48;;;;;;;51.28;19.77;;;179.80;2073.60;;;;;;5071234;28;20490;-65
2020/12/12 05:13:21;;;;;;;44.08;20.20;;;179.80;2073.60;;;;;;5060618;28;20048;-67
2020/12/12 05:15:50;;;;;;;50.88;21.60;;;179.80;2073.60;;;;;;5065777;28;20024;-67
2020/12/12 05:18:15;;;;;;;56.38;26.23;;;179.80;2073.60;;;;;;5061884;28;20082;-67
2020/12/12 05:20:43;;;;;;;56.80;25.02;;;179.80;2099.20;;;;;;5062868;28;20021;-67
2020/12/12 05:23:14;;;;;;;55.40;23.95;;;179.80;2073.60;;;;;;5054980;28;20032;-67
2020/12/12 05:25:40;;;;;;;56.28;22.33;;;179.80;2073.60;;;;;;5070027;28;20532;-67
2020/12/12 05:28:08;;;;;;;49.33;21.77;;;179.80;2073.60;;;;;;5060032;28;20108;-66
2020/12/12 05:30:41;;;;;;;55.20;22.98;;;179.80;2099.20;;;;;;5072438;28;20554;-65
2020/12/12 05:33:10;;;;;;;54.35;22.80;;;179.80;2099.20;;;;;;5064361;28;20029;-66
2020/12/12 05:35:36;;;;;;;54.92;23.73;;;179.80;2073.60;;;;;;5066989;28;20052;-66
2020/12/12 05:38:04;;;;;;;65.65;26.50;;;179.80;2099.20;;;;;;5073541;28;20025;-66
2020/12/12 05:40:31;;;;;;;67.78;29.25;;;179.90;2099.20;;;;;;5056401;28;20393;-67
2020/12/12 05:43:01;;;;;;;64.00;29.20;;;179.80;2099.20;;;;;;5058853;28;20386;-64
2020/12/12 05:45:27;;;;;;;66.07;27.75;;;179.90;2099.20;;;;;;5062640;28;20033;-65
2020/12/12 05:47:52;;;;;;;55.13;23.95;;;179.90;2099.20;;;;;;5062625;28;20162;-66
2020/12/12 05:50:19;;;;;;;50.53;23.13;;;179.90;2099.20;;;;;;5074518;28;20024;-66
2020/12/12 05:52:46;;;;;;;48.85;21.83;;;179.90;2099.20;;;;;;5074427;28;20508;-66
2020/12/12 05:55:12;;;;;;;57.08;23.42;;;179.90;2099.20;;;;;;5074214;28;20052;-66
2020/12/12 05:57:38;;;;;;;66.97;25.83;;;179.90;2099.20;;;;;;5074291;28;20596;-66
2020/12/12 06:00:07;;;;;;;57.42;23.65;;;179.90;2099.20;;;;;;5074405;28;20378;-66
2020/12/12 06:02:36;;;;;;;55.83;24.08;;;179.80;2099.20;;;;;;5074168;28;20370;-66
2020/12/12 06:05:06;;;;;;;60.35;25.15;;;179.90;2099.20;;;;;;5074274;28;20412;-66
2020/12/12 06:07:34;;;;;;;53.83;23.40;;;179.90;2099.20;;;;;;5074021;28;20045;-66
2020/12/12 06:10:05;;;;;;;58.83;24.88;;;179.90;2099.20;;;;;;5074275;28;20477;-66
2020/12/12 06:12:34;;;;;;;56.50;24.42;;;179.90;2099.20;;;;;;5073971;28;20044;-66
2020/12/12 06:15:00;;;;;;;55.15;24.58;;;180.00;2099.20;;;;;;5074141;28;20421;-66
2020/12/12 06:17:40;;;;;;;55.67;23.35;;;180.00;2099.20;;;;;;5073802;28;20074;-66
2020/12/12 06:20:06;;;;;;;52.42;23.70;;;180.00;2099.20;;;;;;5074127;28;20036;-66
2020/12/12 06:22:32;;;;;;;60.22;26.27;;;180.00;2099.20;;;;;;5074095;28;20025;-67
2020/12/12 06:25:00;;;;;;;60.35;24.88;;;180.00;2099.20;;;;;;5073874;28;20025;-66
2020/12/12 06:27:37;;;;;;;52.38;23.73;;;180.00;2099.20;;;;;;5073912;28;20042;-66
2020/12/12 06:30:09;;;;;;;52.45;23.85;;;180.00;2099.20;;;;;;5073981;28;20048;-66
2020/12/12 06:32:35;;;;;;;57.15;24.48;;;180.00;2099.20;;;;;;5073725;28;20553;-67
2020/12/12 06:35:01;;;;;;;50.03;24.92;;;180.00;2099.20;;;;;;5073769;28;20104;-67
2020/12/12 06:37:38;;;;;;;52.88;25.25;;;180.00;2099.20;;;;;;5073745;28;20466;-66
2020/12/12 06:40:10;;;;;;;58.20;26.90;;;180.00;2099.20;;;;;;5073917;28;20077;-67
2020/12/12 06:42:40;;;;;;;59.97;29.23;;;180.00;2099.20;;;;;;5073443;28;20024;-67
2020/12/12 06:45:18;;;;;;;61.70;28.70;;;180.00;2099.20;;;;;;5073604;28;20048;-66
2020/12/12 06:47:45;;;;;;;59.30;29.50;;;180.10;2099.20;;;;;;5073799;28;20131;-66
2020/12/12 06:50:21;;;;;;;68.13;33.75;;;180.10;2099.20;;;;;;5073264;28;20412;-66
2020/12/12 06:52:52;;;;;;;67.82;34.78;;;180.10;2099.20;;;;;;5055728;28;20032;-66
2020/12/12 06:55:20;;;;;;;62.67;33.55;;;180.10;2099.20;;;;;;5073482;28;20079;-66
2020/12/12 06:57:48;;;;;;;71.07;34.58;;;204.80;2099.20;;;;;;5072269;28;20029;-66
2020/12/12 07:00:25;;;;;;;82.88;40.40;;;204.80;2099.20;;;;;;5073696;28;20044;-66
2020/12/12 07:02:58;;;;;;;88.60;42.75;;;204.80;2099.20;;;;;;5073641;28;20059;-66
2020/12/12 07:05:25;;;;;;;78.65;39.78;;;204.80;2099.20;;;;;;5073930;28;20036;-66
2020/12/12 07:07:51;;;;;;;70.05;36.90;;;204.80;2099.20;;;;;;5055370;28;20033;-67
2020/12/12 07:10:18;;;;;;;70.50;34.67;;;204.90;2073.60;;;;;;5073362;28;20052;-67
2020/12/12 07:12:44;;;;;;;63.53;35.30;;;204.80;2073.60;;;;;;5073328;28;20053;-67
2020/12/12 07:15:10;;;;;;;53.92;31.42;;;204.90;2073.60;;;;;;5077265;28;20534;-67
2020/12/12 07:17:36;;;;;;;54.85;30.55;;;204.90;2073.60;;;;;;5077563;28;20108;-67
2020/12/12 07:20:02;;;;;;;53.05;29.80;;;204.90;2073.60;;;;;;5077925;28;20029;-67
2020/12/12 07:22:29;;;;;;;43.88;25.77;;;204.90;2073.60;;;;;;5077381;28;20032;-67
2020/12/12 07:24:57;;;;;;;39.42;23.77;;;204.90;2073.60;;;;;;5077154;28;20103;-66
2020/12/12 07:27:23;;;;;;;42.42;23.35;;;204.90;2073.60;;;;;;5077250;28;20032;-66
2020/12/12 07:29:48;;;;;;;41.42;23.75;;;204.90;2073.60;;;;;;5076888;28;20366;-66
2020/12/12 07:32:15;;;;;;;45.30;28.23;;;204.90;2073.60;;;;;;5063874;28;20040;-67
2020/12/12 07:34:40;;;;;;;50.88;31.23;;;205.00;2073.60;;;;;;5057101;28;20118;-66
2020/12/12 07:37:09;;;;;;;48.97;28.33;;;205.00;2073.60;;;;;;5058985;28;20063;-67
2020/12/12 07:39:42;;;;;;;49.63;27.77;;;205.00;2073.60;;;;;;5065050;28;20406;-65
2020/12/12 07:42:10;;;;;;;55.05;30.98;;;205.10;2073.60;;;;;;5056731;28;20021;-65
2020/12/12 07:44:39;;;;;;;61.53;35.50;;;205.10;2073.60;;;;;;5056687;28;20044;-66
2020/12/12 07:47:12;;;;;;;63.67;33.95;;;205.00;2073.60;;;;;;5056346;28;20033;-64
2020/12/12 07:49:38;;;;;;;61.95;37.10;;;205.00;2073.60;;;;;;5054398;28;20029;-66
2020/12/12 07:52:07;;;;;;;60.03;36.92;;;205.10;2073.60;;;;;;5056842;28;20528;-65
2020/12/12 07:54:35;;;;;;;59.72;35.85;;;205.10;2073.60;;;;;;5056365;28;20041;-67
2020/12/12 07:57:02;;;;;;;81.00;45.70;;;205.20;2073.60;;;;;;5056199;28;20411;-64
2020/12/12 07:59:28;;;;;;;86.93;50.22;;;205.20;2073.60;;;;;;5056230;28;20048;-67
2020/12/12 08:02:01;;;;;;;88.55;48.33;;;205.20;2073.60;;;;;;5056251;28;20092;-68
2020/12/12 08:04:26;;;;;;;81.40;46.90;;;205.30;2073.60;;;;;;5056429;28;20025;-68
2020/12/12 08:06:52;;;;;;;69.32;40.08;;;205.30;2073.60;;;;;;5063701;28;20021;-68
2020/12/12 08:09:25;;;;;;;69.13;38.38;;;205.30;2048.00;;;;;;5076371;28;20545;-69
2020/12/12 08:11:58;;;;;;;82.13;38.30;;;205.30;2048.00;;;;;;5076407;28;20027;-69
2020/12/12 08:14:26;;;;;;;69.00;38.00;;;205.40;2048.00;;;;;;5076342;28;20420;-68
2020/12/12 08:16:59;;;;;;;67.25;35.50;;;205.50;2048.00;;;;;;5076298;28;20253;-68
2020/12/12 08:19:27;;;;;;;69.97;37.20;;;205.50;2022.40;;;;;;5076132;28;20461;-67
2020/12/12 08:22:07;;;;;;;66.82;34.22;;;205.60;2022.40;;;;;;5076346;28;20063;-67
2020/12/12 08:24:33;;;;;;;66.72;34.92;;;205.70;2022.40;;;;;;5075250;28;20031;-66
2020/12/12 08:26:58;;;;;;;65.50;32.70;;;205.70;2022.40;;;;;;5075567;28;20115;-66
2020/12/12 08:29:24;;;;;;;56.80;31.20;;;230.40;2022.40;;;;;;5076072;28;20032;-65
2020/12/12 08:31:50;;;;;;;54.13;28.45;;;230.50;1996.80;;;;;;5076155;28;20028;-66
2020/12/12 08:34:20;;;;;;;56.95;28.20;;;230.50;1996.80;;;;;;5076016;28;20028;-66
2020/12/12 08:36:47;;;;;;;51.70;27.98;;;230.40;2022.40;;;;;;5075983;28;20020;-66
2020/12/12 08:39:12;;;;;;;55.08;26.27;;;230.40;1996.80;;;;;;5076005;28;20025;-66
2020/12/12 08:41:40;;;;;;;56.63;28.65;;;230.40;2022.40;;;;;;5075735;28;20484;-67
2020/12/12 08:44:07;;;;;;;58.75;27.95;;;230.40;2022.40;;;;;;5075814;28;20020;-67
2020/12/12 08:46:33;;;;;;;56.92;30.05;;;230.40;1996.80;;;;;;5075295;28;20028;-68
2020/12/12 08:48:59;;;;;;;58.28;30.98;;;230.40;2022.40;;;;;;5075563;28;20029;-67
2020/12/12 08:51:30;;;;;;;67.90;34.83;;;230.50;2022.40;;;;;;5075668;28;20016;-67
2020/12/12 08:53:57;;;;;;;70.45;35.53;;;230.50;1996.80;;;;;;5075504;28;20094;-67
2020/12/12 08:56:28;;;;;;;72.40;34.28;;;230.50;2022.40;;;;;;5075469;28;20040;-68
2020/12/12 08:58:59;;;;;;;77.78;38.03;;;230.50;1996.80;;;;;;5075490;28;20108;-67
2020/12/12 09:01:28;;;;;;;87.82;42.22;;;230.50;1996.80;;;;;;5075372;28;20025;-67
2020/12/12 09:03:59;;;;;;;89.20;43.50;;;230.60;1996.80;;;;;;5075391;28;20112;-67
2020/12/12 09:06:28;;;;;;;91.07;45.33;;;230.60;1996.80;;;;;;5075280;28;20082;-68
2020/12/12 09:09:12;;;;;;;87.32;43.40;;;230.60;1996.80;;;;;;5075255;28;20031;-68
2020/12/12 09:11:43;;;;;;;79.30;39.70;;;230.60;1996.80;;;;;;5075129;28;20035;-67
2020/12/12 09:14:09;;;;;;;86.53;42.47;;;230.60;1996.80;;;;;;5075231;28;20047;-67
2020/12/12 09:16:37;;;;;;;80.43;38.63;;;230.60;1996.80;;;;;;5075066;28;20470;-68
2020/12/12 09:19:03;;;;;;;89.68;42.35;;;230.60;1996.80;;;;;;5057060;28;20032;-68
2020/12/12 09:21:35;;;;;;;89.18;41.65;;;230.60;1996.80;;;;;;5074784;28;20025;-67
2020/12/12 09:24:01;;;;;;;85.45;40.15;;;230.60;1996.80;;;;;;5075059;28;20025;-68
2020/12/12 09:26:27;;;;;;;72.18;36.67;;;230.70;1996.80;;;;;;5056685;28;20385;-68
2020/12/12 09:28:53;;;;;;;76.15;38.55;;;230.70;1996.80;;;;;;5074875;28;20031;-68
2020/12/12 09:31:20;;;;;;;69.40;35.08;;;230.70;1996.80;;;;;;5074998;28;20520;-67
2020/12/12 09:33:46;;;;;;;73.03;37.10;;;230.70;1996.80;;;;;;5074965;28;20115;-68
2020/12/12 09:36:12;;;;;;;65.78;36.13;;;230.70;1996.80;;;;;;5074468;28;20044;-67
2020/12/12 09:38:37;;;;;;;65.80;35.58;;;230.80;1996.80;;;;;;5056883;28;20060;-68
2020/12/12 09:41:03;;;;;;;64.68;36.20;;;230.80;1996.80;;;;;;5074582;28;20028;-66
2020/12/12 09:43:29;;;;;;;58.60;32.72;;;230.90;1971.20;;;;;;5074526;28;20032;-67
2020/12/12 09:45:55;;;;;;;56.42;30.13;;;230.90;1971.20;;;;;;5074679;28;20031;-67
2020/12/12 09:48:21;;;;;;;56.00;30.33;;;230.90;1971.20;;;;;;5074613;28;20386;-67
2020/12/12 09:50:47;;;;;;;58.67;31.13;;;230.90;1971.20;;;;;;5074595;28;20024;-67
2020/12/12 09:53:13;;;;;;;52.55;30.10;;;230.90;1971.20;;;;;;5074144;28;20035;-67
2020/12/12 09:55:40;;;;;;;55.25;31.85;;;231.00;1971.20;;;;;;5074019;28;20049;-67
2020/12/12 09:58:09;;;;;;;53.42;30.38;;;231.00;1971.20;;;;;;5074179;28;20020;-67
2020/12/12 10:00:36;;;;;;;48.40;26.35;;;231.00;1971.20;;;;;;5074453;28;20020;-65
2020/12/12 10:03:03;;;;;;;54.67;26.38;;;231.10;1945.60;;;;;;5074359;28;20025;-68
2020/12/12 10:05:29;;;;;;;51.20;27.25;;;231.10;1945.60;;;;;;5074310;28;20032;-66
2020/12/12 10:07:56;;;;;;;47.72;28.75;;;231.10;1971.20;;;;;;5074119;28;20038;-66
2020/12/12 10:10:24;;;;;;;50.95;27.08;;;231.10;1945.60;;;;;;5074200;28;20063;-64
2020/12/12 10:12:49;;;;;;;48.35;25.95;;;231.10;1945.60;;;;;;5069091;28;20024;-66
2020/12/12 10:15:20;;;;;;;47.40;26.15;;;231.10;1971.20;;;;;;5051945;28;20080;-67
2020/12/12 10:17:47;;;;;;;45.35;26.85;;;231.10;1945.60;;;;;;5051580;28;20025;-67
2020/12/12 10:20:14;;;;;;;44.30;27.33;;;231.10;1945.60;;;;;;5041055;28;20037;-67
2020/12/12 10:22:40;;;;;;;39.03;23.80;;;231.10;1971.20;;;;;;5073370;28;20020;-66
2020/12/12 10:25:07;;;;;;;39.75;25.50;;;231.20;1945.60;;;;;;5057393;28;20087;-67
2020/12/12 10:27:33;;;;;;;42.40;27.83;;;231.20;1945.60;;;;;;5043633;28;20035;-66
2020/12/12 10:29:59;;;;;;;41.90;26.85;;;231.20;1945.60;;;;;;5044904;28;20029;-68
2020/12/12 10:32:25;;;;;;;48.92;29.10;;;231.30;1945.60;;;;;;5032816;28;20033;-67
2020/12/12 10:34:51;;;;;;;44.03;28.30;;;231.30;1945.60;;;;;;5045652;28;20033;-67
2020/12/12 10:37:17;;;;;;;42.35;27.33;;;231.30;1945.60;;;;;;5052735;28;20056;-68
2020/12/12 10:42:27;;;;;;;44.88;30.17;;;256.00;1945.60;;;;;;5044416;28;20481;-67
2020/12/12 10:44:52;;;;;;;52.08;31.50;;;256.10;1920.00;;;;;;5053518;28;20029;-68
2020/12/12 10:47:18;;;;;;;53.55;32.88;;;256.10;1920.00;;;;;;5053423;28;20378;-67
2020/12/12 10:49:44;;;;;;;52.95;31.92;;;256.20;1920.00;;;;;;5053131;28;20458;-68
2020/12/12 10:52:09;;;;;;;47.17;29.90;;;256.20;1920.00;;;;;;5053692;28;20064;-69
2020/12/12 10:54:35;;;;;;;44.85;27.77;;;256.30;1920.00;;;;;;5053272;28;20056;-65
2020/12/12 10:57:01;;;;;;;46.65;27.98;;;256.10;1920.00;;;;;;5053417;28;20462;-69
2020/12/12 10:59:27;;;;;;;46.42;27.02;;;256.10;1920.00;;;;;;5053528;28;20043;-70
2020/12/12 11:01:55;;;;;;;48.22;28.80;;;256.20;1894.40;;;;;;5053319;28;20124;-70
2020/12/12 11:04:22;;;;;;;47.97;30.30;;;256.20;1920.00;;;;;;5053257;28;20110;-67
2020/12/12 11:06:49;;;;;;;47.40;30.45;;;256.10;1920.00;;;;;;5053505;28;20017;-69
2020/12/12 11:09:15;;;;;;;43.10;28.25;;;256.10;1920.00;;;;;;5053342;28;20391;-68
2020/12/12 11:11:41;;;;;;;42.75;28.08;;;256.20;1894.40;;;;;;5053074;28;20018;-65
2020/12/12 11:14:08;;;;;;;41.88;26.58;;;256.20;1894.40;;;;;;5050813;28;20878;-65
2020/12/12 11:16:34;;;;;;;38.75;26.27;;;256.20;1894.40;;;;;;5051681;28;20048;-71
2020/12/12 11:19:00;;;;;;;35.90;23.30;;;256.20;1894.40;;;;;;5053552;28;20025;-66
2020/12/12 11:21:27;;;;;;;38.85;22.85;;;256.30;1920.00;;;;;;5053336;28;20032;-69
2020/12/12 11:23:53;;;;;;;36.08;22.42;;;256.30;1894.40;;;;;;5053254;28;20078;-71
2020/12/12 11:26:19;;;;;;;37.08;23.17;;;256.40;1894.40;;;;;;5053527;28;20029;-69
2020/12/12 11:28:46;;;;;;;36.72;23.92;;;256.40;1894.40;;;;;;5053055;28;20029;-70
2020/12/12 11:31:14;;;;;;;36.65;24.90;;;256.50;1868.80;;;;;;5053106;28;20103;-71
2020/12/12 11:33:41;;;;;;;33.78;23.27;;;256.50;1894.40;;;;;;5053043;28;20036;-70
2020/12/12 11:41:17;;;;;;;31.75;21.33;;;256.60;1868.80;;;;;;5053133;28;20151;-71
2020/12/12 11:44:12;;;;;;;37.08;22.83;;;256.50;1868.80;;;;;;5053227;28;20091;-70
2020/12/12 11:46:31;;;;;;;42.95;24.67;;;256.60;1868.80;;;;;;5051630;28;20369;-70
2020/12/12 11:48:58;;;;;;;43.20;25.13;;;256.50;1868.80;;;;;;5053107;28;20037;-71
2020/12/12 11:51:24;;;;;;;42.40;24.55;;;256.50;1868.80;;;;;;5053151;28;20036;-71
2020/12/12 11:53:49;;;;;;;39.42;23.33;;;256.40;1868.80;;;;;;5052956;28;20037;-70
2020/12/12 11:56:20;;;;;;;35.83;21.23;;;256.40;1868.80;;;;;;5052490;28;20052;-70
2020/12/12 11:58:46;;;;;;;50.95;22.45;;;256.30;1894.40;;;;;;5053009;28;20036;-71
2020/12/12 12:01:17;;;;;;;42.50;26.00;;;256.30;1894.40;;;;;;5057149;28;20025;-71
2020/12/12 12:03:43;;;;;;;38.80;24.20;;;256.30;1894.40;;;;;;5056505;28;20524;-71
2020/12/12 12:06:08;;;;;;;53.50;31.45;;;256.30;1894.40;;;;;;5056908;28;20037;-71
2020/12/12 12:13:42;;;;;;;55.88;34.92;;;256.20;1894.40;;;;;;5056290;28;20467;-70